Terminal Aerodrome Forecast
Issued by NWS

Home | Current Version | Previous Version | Text Only | Print | Product List | Glossary On
Versions: 1 2 3 4 5 6 7 8 9 10 11 12 13 14 15 16 17 18 19
000
FTUS46 KSEW 261120
TAFBFI
TAF
KBFI 261120Z 2612/2712 12005KT P6SM BKN050 OVC110
     FM261500 12005KT P6SM -RA OVC050
     FM261800 15008KT P6SM -RA FEW028 OVC040
     FM262100 15008KT 6SM -RA BR OVC028
     FM270300 17009KT P6SM VCSH BKN028 OVC040 PROB30 2703/2709
      -SHRA=

USA.gov is the U.S. government's official web portal to all federal, state and local government web resources and services.